Eudora, Missouri
Current Conditions -  °F | °C
As of 7:52 PM on Saturday 22 Nov 2014 (Local Time) from KSGF Reporting Station
Clear Clear  
Wind Chill: 52°   Ceiling: Unl
Heat Index: 52°   Visibility: 10mi
Dew Point: 50°   Wind: 15mph
Humidity: 93%   Direction: 150°SSE
Pressure: 29.85"   Gusts: NA
Location:  37.48°N, 93.54°W
Report Text: KSGF 230152Z 15013KT 10SM CLR 11/10 A2985 RMK AO2 SLP108 T01110100
Loading
Personal Weather Stations






























Interactive Weather Map New forecast layout! Learn more

10-Day Weather Forecast

Advertisements
Track Severe Weather on mobile